sensor_id;sensor_type;location;lat;lon;timestamp;pressure;altitude;pressure_sealevel;temperature;humidity
78354;BME280;67629;46.040;18.232;2023-04-25T00:00:11;98820.22;;;10.18;91.65
78354;BME280;67629;46.040;18.232;2023-04-25T00:00:42;98816.34;;;10.14;90.98
78354;BME280;67629;46.040;18.232;2023-04-25T00:01:12;98814.19;;;10.16;91.11
78354;BME280;67629;46.040;18.232;2023-04-25T00:01:43;98819.41;;;10.18;91.52
78354;BME280;67629;46.040;18.232;2023-04-25T00:02:14;98824.56;;;10.19;91.29
78354;BME280;67629;46.040;18.232;2023-04-25T00:02:45;98809.56;;;10.17;91.36
78354;BME280;67629;46.040;18.232;2023-04-25T00:03:16;98822.13;;;10.18;91.53
78354;BME280;67629;46.040;18.232;2023-04-25T00:03:48;98822.94;;;10.18;91.02
78354;BME280;67629;46.040;18.232;2023-04-25T00:04:19;98821.84;;;10.19;91.21
78354;BME280;67629;46.040;18.232;2023-04-25T00:04:51;98820.50;;;10.22;91.44
78354;BME280;67629;46.040;18.232;2023-04-25T00:05:26;98817.75;;;10.17;91.62
78354;BME280;67629;46.040;18.232;2023-04-25T00:06:00;98810.09;;;10.19;91.57
78354;BME280;67629;46.040;18.232;2023-04-25T00:06:33;98813.94;;;10.18;91.76
78354;BME280;67629;46.040;18.232;2023-04-25T00:07:06;98811.75;;;10.20;90.98
78354;BME280;67629;46.040;18.232;2023-04-25T00:07:37;98808.50;;;10.23;91.21
78354;BME280;67629;46.040;18.232;2023-04-25T00:08:07;98816.69;;;10.23;91.40
78354;BME280;67629;46.040;18.232;2023-04-25T00:08:53;98819.13;;;10.19;91.13
78354;BME280;67629;46.040;18.232;2023-04-25T00:09:27;98820.75;;;10.15;91.58
78354;BME280;67629;46.040;18.232;2023-04-25T00:10:13;98814.47;;;10.15;91.88
78354;BME280;67629;46.040;18.232;2023-04-25T00:10:44;98818.03;;;10.20;91.83
78354;BME280;67629;46.040;18.232;2023-04-25T00:11:30;98817.78;;;10.22;91.81
78354;BME280;67629;46.040;18.232;2023-04-25T00:12:01;98818.00;;;10.15;91.84
78354;BME280;67629;46.040;18.232;2023-04-25T00:12:47;98817.50;;;10.18;92.17
78354;BME280;67629;46.040;18.232;2023-04-25T00:13:33;98820.78;;;10.20;91.75
78354;BME280;67629;46.040;18.232;2023-04-25T00:14:19;98822.09;;;10.13;91.60
78354;BME280;67629;46.040;18.232;2023-04-25T00:15:06;98819.56;;;10.11;91.53
78354;BME280;67629;46.040;18.232;2023-04-25T00:15:36;98813.94;;;10.18;91.27
78354;BME280;67629;46.040;18.232;2023-04-25T00:16:08;98813.97;;;10.23;91.39
78354;BME280;67629;46.040;18.232;2023-04-25T00:16:38;98813.94;;;10.18;91.01
78354;BME280;67629;46.040;18.232;2023-04-25T00:17:11;98819.09;;;10.14;91.14
78354;BME280;67629;46.040;18.232;2023-04-25T00:17:41;98825.91;;;10.17;91.08
78354;BME280;67629;46.040;18.232;2023-04-25T00:18:12;98813.94;;;10.18;91.58
78354;BME280;67629;46.040;18.232;2023-04-25T00:18:43;98823.22;;;10.22;90.62
78354;BME280;67629;46.040;18.232;2023-04-25T00:19:13;98830.91;;;10.25;90.59
78354;BME280;67629;46.040;18.232;2023-04-25T00:19:44;98825.16;;;10.21;90.50
78354;BME280;67629;46.040;18.232;2023-04-25T00:20:16;98816.84;;;10.11;91.19
78354;BME280;67629;46.040;18.232;2023-04-25T00:20:47;98825.09;;;10.16;90.55
78354;BME280;67629;46.040;18.232;2023-04-25T00:21:18;98827.06;;;10.21;90.84
78354;BME280;67629;46.040;18.232;2023-04-25T00:21:50;98828.66;;;10.17;90.88
78354;BME280;67629;46.040;18.232;2023-04-25T00:22:20;98822.97;;;10.23;92.05
78354;BME280;67629;46.040;18.232;2023-04-25T00:22:51;98821.88;;;10.24;91.92
78354;BME280;67629;46.040;18.232;2023-04-25T00:23:23;98830.00;;;10.14;91.23
78354;BME280;67629;46.040;18.232;2023-04-25T00:23:55;98830.56;;;10.16;90.52
78354;BME280;67629;46.040;18.232;2023-04-25T00:24:41;98826.25;;;10.25;90.80
78354;BME280;67629;46.040;18.232;2023-04-25T00:25:26;98824.47;;;10.09;89.84
78354;BME280;67629;46.040;18.232;2023-04-25T00:26:13;98820.66;;;10.10;90.03
78354;BME280;67629;46.040;18.232;2023-04-25T00:26:43;98831.31;;;10.12;89.95
78354;BME280;67629;46.040;18.232;2023-04-25T00:27:14;98816.06;;;10.16;90.31
78354;BME280;67629;46.040;18.232;2023-04-25T00:27:45;98818.03;;;10.20;90.76
78354;BME280;67629;46.040;18.232;2023-04-25T00:28:31;98826.44;;;10.14;90.11
78354;BME280;67629;46.040;18.232;2023-04-25T00:29:16;98826.94;;;10.11;90.19
78354;BME280;67629;46.040;18.232;2023-04-25T00:30:03;98829.34;;;10.07;90.01
78354;BME280;67629;46.040;18.232;2023-04-25T00:30:49;98824.72;;;10.08;89.83
78354;BME280;67629;46.040;18.232;2023-04-25T00:31:34;98818.97;;;10.04;89.89
78354;BME280;67629;46.040;18.232;2023-04-25T00:32:05;98825.81;;;10.07;90.43
78354;BME280;67629;46.040;18.232;2023-04-25T00:32:36;98820.03;;;9.98;90.97
78354;BME280;67629;46.040;18.232;2023-04-25T00:33:22;98827.69;;;10.01;90.14
78354;BME280;67629;46.040;18.232;2023-04-25T00:34:08;98829.00;;;9.99;90.34
78354;BME280;67629;46.040;18.232;2023-04-25T00:34:54;98832.63;;;10.04;90.39
78354;BME280;67629;46.040;18.232;2023-04-25T00:35:26;98834.53;;;10.04;89.81
78354;BME280;67629;46.040;18.232;2023-04-25T00:35:56;98823.03;;;10.02;89.62
78354;BME280;67629;46.040;18.232;2023-04-25T00:36:27;98829.31;;;10.02;89.94
78354;BME280;67629;46.040;18.232;2023-04-25T00:36:58;98828.19;;;9.98;89.56
78354;BME280;67629;46.040;18.232;2023-04-25T00:37:28;98830.63;;;9.95;89.94
78354;BME280;67629;46.040;18.232;2023-04-25T00:37:59;98829.28;;;9.97;90.12
78354;BME280;67629;46.040;18.232;2023-04-25T00:38:30;98828.97;;;9.94;89.62
78354;BME280;67629;46.040;18.232;2023-04-25T00:39:02;98838.28;;;9.98;89.85
78354;BME280;67629;46.040;18.232;2023-04-25T00:39:35;98819.19;;;9.98;89.68
78354;BME280;67629;46.040;18.232;2023-04-25T00:40:38;98831.28;;;10.07;89.53
78354;BME280;67629;46.040;18.232;2023-04-25T00:41:41;98823.53;;;9.99;89.91
78354;BME280;67629;46.040;18.232;2023-04-25T00:42:12;98820.56;;;10.00;90.21
78354;BME280;67629;46.040;18.232;2023-04-25T00:42:44;98831.22;;;10.02;89.76
78354;BME280;67629;46.040;18.232;2023-04-25T00:43:15;98829.59;;;10.01;89.54
78354;BME280;67629;46.040;18.232;2023-04-25T00:43:48;98835.03;;;10.01;89.84
78354;BME280;67629;46.040;18.232;2023-04-25T00:44:20;98832.84;;;9.98;89.25
78354;BME280;67629;46.040;18.232;2023-04-25T00:44:53;98840.19;;;9.97;89.41
78354;BME280;67629;46.040;18.232;2023-04-25T00:45:27;98829.31;;;10.02;89.24
78354;BME280;67629;46.040;18.232;2023-04-25T00:46:00;98836.66;;;10.02;89.14
78354;BME280;67629;46.040;18.232;2023-04-25T00:46:31;98824.44;;;10.04;89.71
78354;BME280;67629;46.040;18.232;2023-04-25T00:47:02;98836.66;;;10.02;88.80
78354;BME280;67629;46.040;18.232;2023-04-25T00:48:14;98837.19;;;9.99;88.98
78354;BME280;67629;46.040;18.232;2023-04-25T00:48:44;98845.94;;;10.01;88.89
78354;BME280;67629;46.040;18.232;2023-04-25T00:49:48;98840.63;;;9.84;88.88
78354;BME280;67629;46.040;18.232;2023-04-25T00:50:18;98843.69;;;9.93;89.80
78354;BME280;67629;46.040;18.232;2023-04-25T00:50:53;98844.78;;;9.92;89.46
78354;BME280;67629;46.040;18.232;2023-04-25T00:51:26;98843.19;;;9.96;89.75
78354;BME280;67629;46.040;18.232;2023-04-25T00:51:57;98847.53;;;9.97;89.40
78354;BME280;67629;46.040;18.232;2023-04-25T00:52:28;98843.97;;;9.96;90.13
78354;BME280;67629;46.040;18.232;2023-04-25T00:52:59;98844.28;;;10.00;90.23
78354;BME280;67629;46.040;18.232;2023-04-25T00:53:30;98845.66;;;9.97;89.72
78354;BME280;67629;46.040;18.232;2023-04-25T00:54:02;98848.53;;;9.86;90.21
78354;BME280;67629;46.040;18.232;2023-04-25T00:54:33;98842.75;;;9.82;89.73
78354;BME280;67629;46.040;18.232;2023-04-25T00:55:36;98851.06;;;9.92;89.46
78354;BME280;67629;46.040;18.232;2023-04-25T00:56:07;98855.41;;;9.93;89.96
78354;BME280;67629;46.040;18.232;2023-04-25T00:56:38;98842.56;;;9.89;89.11
78354;BME280;67629;46.040;18.232;2023-04-25T00:57:09;98853.78;;;9.92;89.55
78354;BME280;67629;46.040;18.232;2023-04-25T00:57:41;98845.31;;;9.94;90.17
78354;BME280;67629;46.040;18.232;2023-04-25T00:58:13;98846.47;;;9.98;90.49
78354;BME280;67629;46.040;18.232;2023-04-25T00:58:44;98849.16;;;9.93;89.81
78354;BME280;67629;46.040;18.232;2023-04-25T00:59:16;98852.44;;;9.95;89.90
78354;BME280;67629;46.040;18.232;2023-04-25T01:00:21;98852.41;;;9.90;90.72
78354;BME280;67629;46.040;18.232;2023-04-25T01:00:52;98848.56;;;9.91;91.24
78354;BME280;67629;46.040;18.232;2023-04-25T01:01:23;98839.88;;;9.94;91.20
78354;BME280;67629;46.040;18.232;2023-04-25T01:01:53;98845.59;;;9.92;91.15
78354;BME280;67629;46.040;18.232;2023-04-25T01:02:25;98846.44;;;9.93;91.06
78354;BME280;67629;46.040;18.232;2023-04-25T01:02:58;98844.78;;;9.92;89.95
78354;BME280;67629;46.040;18.232;2023-04-25T01:03:32;98852.97;;;9.92;90.05
78354;BME280;67629;46.040;18.232;2023-04-25T01:04:03;98860.31;;;9.91;90.76
78354;BME280;67629;46.040;18.232;2023-04-25T01:04:34;98849.00;;;9.78;90.02
78354;BME280;67629;46.040;18.232;2023-04-25T01:05:04;98852.31;;;9.85;90.38
78354;BME280;67629;46.040;18.232;2023-04-25T01:05:35;98851.25;;;9.86;90.53
78354;BME280;67629;46.040;18.232;2023-04-25T01:06:10;98860.28;;;9.86;90.85
78354;BME280;67629;46.040;18.232;2023-04-25T01:06:41;98853.16;;;9.85;90.16
78354;BME280;67629;46.040;18.232;2023-04-25T01:07:12;98848.53;;;9.86;90.63
78354;BME280;67629;46.040;18.232;2023-04-25T01:07:42;98848.25;;;9.87;91.40
78354;BME280;67629;46.040;18.232;2023-04-25T01:08:14;98853.19;;;9.90;91.31
78354;BME280;67629;46.040;18.232;2023-04-25T01:08:46;98849.97;;;9.93;91.85
78354;BME280;67629;46.040;18.232;2023-04-25T01:09:16;98864.09;;;9.90;91.47
78354;BME280;67629;46.040;18.232;2023-04-25T01:09:51;98865.75;;;9.91;91.22
78354;BME280;67629;46.040;18.232;2023-04-25T01:11:58;98858.09;;;9.88;90.91
78354;BME280;67629;46.040;18.232;2023-04-25T01:12:29;98852.91;;;9.87;90.97
78354;BME280;67629;46.040;18.232;2023-04-25T01:13:00;98843.63;;;9.88;91.57
78354;BME280;67629;46.040;18.232;2023-04-25T01:13:30;98852.84;;;9.82;91.83
78354;BME280;67629;46.040;18.232;2023-04-25T01:14:02;98855.53;;;9.77;91.74
78354;BME280;67629;46.040;18.232;2023-04-25T01:14:33;98858.81;;;9.79;91.88
78354;BME280;67629;46.040;18.232;2023-04-25T01:15:04;98850.38;;;9.80;91.14
78354;BME280;67629;46.040;18.232;2023-04-25T01:15:35;98863.47;;;9.78;90.95
78354;BME280;67629;46.040;18.232;2023-04-25T01:16:06;98855.84;;;9.80;90.83
78354;BME280;67629;46.040;18.232;2023-04-25T01:16:37;98854.50;;;9.83;90.54
78354;BME280;67629;46.040;18.232;2023-04-25T01:17:09;98855.31;;;9.83;89.96
78354;BME280;67629;46.040;18.232;2023-04-25T01:17:40;98852.09;;;9.86;89.94
78354;BME280;67629;46.040;18.232;2023-04-25T01:18:11;98863.56;;;9.88;90.36
78354;BME280;67629;46.040;18.232;2023-04-25T01:18:43;98868.50;;;9.91;90.99
78354;BME280;67629;46.040;18.232;2023-04-25T01:19:16;98870.16;;;9.92;90.84
78354;BME280;67629;46.040;18.232;2023-04-25T01:19:47;98873.63;;;9.88;90.80
78354;BME280;67629;46.040;18.232;2023-04-25T01:20:22;98863.31;;;9.90;91.28
78354;BME280;67629;46.040;18.232;2023-04-25T01:20:54;98860.31;;;9.91;91.11
78354;BME280;67629;46.040;18.232;2023-04-25T01:21:24;98859.47;;;9.91;90.95
78354;BME280;67629;46.040;18.232;2023-04-25T01:21:57;98854.53;;;9.88;91.08
78354;BME280;67629;46.040;18.232;2023-04-25T01:22:28;98860.78;;;9.83;91.16
78354;BME280;67629;46.040;18.232;2023-04-25T01:23:29;98869.72;;;9.79;91.15
78354;BME280;67629;46.040;18.232;2023-04-25T01:24:00;98862.97;;;9.81;91.01
78354;BME280;67629;46.040;18.232;2023-04-25T01:24:32;98874.16;;;9.85;90.55
78354;BME280;67629;46.040;18.232;2023-04-25T01:25:03;98868.44;;;9.86;90.77
78354;BME280;67629;46.040;18.232;2023-04-25T01:25:34;98873.91;;;9.86;91.27
78354;BME280;67629;46.040;18.232;2023-04-25T01:26:06;98879.59;;;9.85;90.86
78354;BME280;67629;46.040;18.232;2023-04-25T01:26:37;98868.13;;;9.83;91.42
78354;BME280;67629;46.040;18.232;2023-04-25T01:27:09;98868.59;;;9.74;91.30
78354;BME280;67629;46.040;18.232;2023-04-25T01:27:40;98860.66;;;9.73;90.92
78354;BME280;67629;46.040;18.232;2023-04-25T01:28:11;98858.56;;;9.80;91.37
78354;BME280;67629;46.040;18.232;2023-04-25T01:28:42;98855.28;;;9.78;91.18
78354;BME280;67629;46.040;18.232;2023-04-25T01:29:13;98859.91;;;9.78;91.08
78354;BME280;67629;46.040;18.232;2023-04-25T01:29:44;98853.63;;;9.77;91.30
78354;BME280;67629;46.040;18.232;2023-04-25T01:30:15;98851.22;;;9.81;91.61
78354;BME280;67629;46.040;18.232;2023-04-25T01:30:46;98864.25;;;9.79;90.85
78354;BME280;67629;46.040;18.232;2023-04-25T01:31:51;98875.75;;;9.81;90.06
78354;BME280;67629;46.040;18.232;2023-04-25T01:32:22;98881.22;;;9.81;90.45
78354;BME280;67629;46.040;18.232;2023-04-25T01:32:55;98877.97;;;9.84;91.34
78354;BME280;67629;46.040;18.232;2023-04-25T01:33:27;98883.44;;;9.84;91.47
78354;BME280;67629;46.040;18.232;2023-04-25T01:33:57;98875.75;;;9.81;91.21
78354;BME280;67629;46.040;18.232;2023-04-25T01:35:00;98860.97;;;9.77;91.29
78354;BME280;67629;46.040;18.232;2023-04-25T01:35:32;98853.81;;;9.70;91.66
78354;BME280;67629;46.040;18.232;2023-04-25T01:36:03;98851.69;;;9.72;92.43
78354;BME280;67629;46.040;18.232;2023-04-25T01:36:34;98847.53;;;9.70;91.90
78354;BME280;67629;46.040;18.232;2023-04-25T01:37:05;98851.88;;;9.66;90.94
78354;BME280;67629;46.040;18.232;2023-04-25T01:37:39;98856.56;;;9.70;91.41
78354;BME280;67629;46.040;18.232;2023-04-25T01:38:12;98866.63;;;9.70;91.08
78354;BME280;67629;46.040;18.232;2023-04-25T01:38:42;98873.00;;;9.76;90.77
78354;BME280;67629;46.040;18.232;2023-04-25T01:39:15;98876.84;;;9.80;90.94
78354;BME280;67629;46.040;18.232;2023-04-25T01:40:21;98880.94;;;9.82;90.62
78354;BME280;67629;46.040;18.232;2023-04-25T01:40:53;98873.88;;;9.81;91.10
78354;BME280;67629;46.040;18.232;2023-04-25T01:41:25;98878.16;;;9.77;91.77
78354;BME280;67629;46.040;18.232;2023-04-25T01:41:58;98872.66;;;9.72;91.65
78354;BME280;67629;46.040;18.232;2023-04-25T01:42:28;98868.03;;;9.72;91.28
78354;BME280;67629;46.040;18.232;2023-04-25T01:42:59;98860.41;;;9.74;91.05
78354;BME280;67629;46.040;18.232;2023-04-25T01:43:30;98854.94;;;9.69;91.71
78354;BME280;67629;46.040;18.232;2023-04-25T01:44:01;98853.81;;;9.70;91.97
78354;BME280;67629;46.040;18.232;2023-04-25T01:44:31;98853.25;;;9.68;91.90
78354;BME280;67629;46.040;18.232;2023-04-25T01:45:03;98853.78;;;9.65;91.68
78354;BME280;67629;46.040;18.232;2023-04-25T01:46:09;98862.47;;;9.62;90.83
78354;BME280;67629;46.040;18.232;2023-04-25T01:46:39;98872.34;;;9.68;91.46
78354;BME280;67629;46.040;18.232;2023-04-25T01:47:10;98872.66;;;9.72;91.64
78354;BME280;67629;46.040;18.232;2023-04-25T01:47:41;98877.03;;;9.73;91.22
78354;BME280;67629;46.040;18.232;2023-04-25T01:48:14;98872.41;;;9.73;91.09
78354;BME280;67629;46.040;18.232;2023-04-25T01:48:45;98881.38;;;9.69;91.56
78354;BME280;67629;46.040;18.232;2023-04-25T01:49:15;98866.38;;;9.71;91.70
78354;BME280;67629;46.040;18.232;2023-04-25T01:49:46;98859.78;;;9.67;90.93
78354;BME280;67629;46.040;18.232;2023-04-25T01:50:18;98854.81;;;9.59;89.97
78354;BME280;67629;46.040;18.232;2023-04-25T01:50:49;98851.00;;;9.60;90.88
78354;BME280;67629;46.040;18.232;2023-04-25T01:51:19;98858.63;;;9.58;90.64
78354;BME280;67629;46.040;18.232;2023-04-25T01:51:50;98869.00;;;9.61;91.33
78354;BME280;67629;46.040;18.232;2023-04-25T01:52:21;98863.53;;;9.61;90.15
78354;BME280;67629;46.040;18.232;2023-04-25T01:52:52;98871.47;;;9.63;89.72
78354;BME280;67629;46.040;18.232;2023-04-25T01:53:23;98868.47;;;9.64;90.40
78354;BME280;67629;46.040;18.232;2023-04-25T01:54:28;98864.63;;;9.60;90.06
78354;BME280;67629;46.040;18.232;2023-04-25T01:55:02;98860.31;;;9.64;90.00
78354;BME280;67629;46.040;18.232;2023-04-25T01:55:33;98854.84;;;9.64;90.60
78354;BME280;67629;46.040;18.232;2023-04-25T01:56:04;98851.84;;;9.61;90.49
78354;BME280;67629;46.040;18.232;2023-04-25T01:56:37;98854.28;;;9.62;90.12
78354;BME280;67629;46.040;18.232;2023-04-25T01:57:08;98861.97;;;9.65;88.58
78354;BME280;67629;46.040;18.232;2023-04-25T01:57:38;98862.50;;;9.67;89.28
78354;BME280;67629;46.040;18.232;2023-04-25T01:58:10;98874.44;;;9.61;89.59
78354;BME280;67629;46.040;18.232;2023-04-25T01:58:43;98874.41;;;9.56;89.86
78354;BME280;67629;46.040;18.232;2023-04-25T01:59:14;98870.59;;;9.57;89.59
78354;BME280;67629;46.040;18.232;2023-04-25T02:00:18;98868.56;;;9.48;88.13
78354;BME280;67629;46.040;18.232;2023-04-25T02:00:48;98868.38;;;9.54;87.98
78354;BME280;67629;46.040;18.232;2023-04-25T02:01:53;98853.41;;;9.57;88.87
78354;BME280;67629;46.040;18.232;2023-04-25T02:02:23;98845.44;;;9.50;89.88
78354;BME280;67629;46.040;18.232;2023-04-25T02:02:58;98851.25;;;9.59;90.70
78354;BME280;67629;46.040;18.232;2023-04-25T02:03:30;98867.03;;;9.57;89.28
78354;BME280;67629;46.040;18.232;2023-04-25T02:04:36;98860.00;;;9.61;88.23
78354;BME280;67629;46.040;18.232;2023-04-25T02:05:07;98865.47;;;9.61;87.92
78354;BME280;67629;46.040;18.232;2023-04-25T02:05:39;98864.09;;;9.58;88.41
78354;BME280;67629;46.040;18.232;2023-04-25T02:06:09;98858.34;;;9.60;89.45
78354;BME280;67629;46.040;18.232;2023-04-25T02:06:40;98852.34;;;9.58;88.81
78354;BME280;67629;46.040;18.232;2023-04-25T02:07:10;98859.19;;;9.60;88.70
78354;BME280;67629;46.040;18.232;2023-04-25T02:07:41;98860.25;;;9.59;87.68
78354;BME280;67629;46.040;18.232;2023-04-25T02:08:44;98857.53;;;9.59;85.77
78354;BME280;67629;46.040;18.232;2023-04-25T02:09:49;98855.69;;;9.65;86.36
78354;BME280;67629;46.040;18.232;2023-04-25T02:11:24;98861.63;;;9.62;87.17
78354;BME280;67629;46.040;18.232;2023-04-25T02:11:54;98857.53;;;9.59;87.58
78354;BME280;67629;46.040;18.232;2023-04-25T02:12:25;98866.22;;;9.56;88.12
78354;BME280;67629;46.040;18.232;2023-04-25T02:12:57;98867.56;;;9.54;88.83
78354;BME280;67629;46.040;18.232;2023-04-25T02:13:28;98872.25;;;9.58;89.08
78354;BME280;67629;46.040;18.232;2023-04-25T02:14:31;98858.91;;;9.62;89.07
78354;BME280;67629;46.040;18.232;2023-04-25T02:16:08;98845.50;;;9.55;87.83
78354;BME280;67629;46.040;18.232;2023-04-25T02:17:11;98856.97;;;9.57;87.04
78354;BME280;67629;46.040;18.232;2023-04-25T02:18:16;98852.06;;;9.59;87.73
78354;BME280;67629;46.040;18.232;2023-04-25T02:19:23;98865.50;;;9.66;88.14
78354;BME280;67629;46.040;18.232;2023-04-25T02:21:03;98859.53;;;9.69;85.39
78354;BME280;67629;46.040;18.232;2023-04-25T02:21:34;98866.34;;;9.66;86.79
78354;BME280;67629;46.040;18.232;2023-04-25T02:23:05;98850.19;;;9.60;87.91
78354;BME280;67629;46.040;18.232;2023-04-25T02:23:35;98842.78;;;9.55;87.63
78354;BME280;67629;46.040;18.232;2023-04-25T02:24:06;98841.94;;;9.55;88.03
78354;BME280;67629;46.040;18.232;2023-04-25T02:24:40;98844.63;;;9.50;88.15
78354;BME280;67629;46.040;18.232;2023-04-25T02:25:12;98850.63;;;9.52;87.98
78354;BME280;67629;46.040;18.232;2023-04-25T02:25:44;98858.25;;;9.50;88.23
78354;BME280;67629;46.040;18.232;2023-04-25T02:26:15;98867.22;;;9.50;88.39
78354;BME280;67629;46.040;18.232;2023-04-25T02:26:49;98868.94;;;9.56;88.69
78354;BME280;67629;46.040;18.232;2023-04-25T02:30:31;98866.16;;;9.51;89.17
78354;BME280;67629;46.040;18.232;2023-04-25T02:31:45;98827.69;;;9.48;88.67
78354;BME280;67629;46.040;18.232;2023-04-25T02:32:19;98842.41;;;9.47;89.25
78354;BME280;67629;46.040;18.232;2023-04-25T02:33:27;98856.28;;;9.45;89.32
78354;BME280;67629;46.040;18.232;2023-04-25T02:34:33;98855.31;;;9.56;89.98
78354;BME280;67629;46.040;18.232;2023-04-25T02:35:04;98864.31;;;9.57;89.58
78354;BME280;67629;46.040;18.232;2023-04-25T02:35:35;98869.53;;;9.58;89.81
78354;BME280;67629;46.040;18.232;2023-04-25T02:36:06;98870.59;;;9.57;89.73
78354;BME280;67629;46.040;18.232;2023-04-25T02:36:37;98859.88;;;9.51;89.70
78354;BME280;67629;46.040;18.232;2023-04-25T02:37:07;98853.69;;;9.55;88.12
78354;BME280;67629;46.040;18.232;2023-04-25T02:37:39;98856.03;;;9.47;89.07
78354;BME280;67629;46.040;18.232;2023-04-25T02:38:10;98845.19;;;9.52;88.12
78354;BME280;67629;46.040;18.232;2023-04-25T02:39:12;98842.69;;;9.50;89.42
78354;BME280;67629;46.040;18.232;2023-04-25T02:39:43;98845.44;;;9.50;89.58
78354;BME280;67629;46.040;18.232;2023-04-25T02:41:17;98859.06;;;9.50;90.57
78354;BME280;67629;46.040;18.232;2023-04-25T02:41:48;98859.88;;;9.51;89.80
78354;BME280;67629;46.040;18.232;2023-04-25T02:42:19;98859.38;;;9.54;91.27
78354;BME280;67629;46.040;18.232;2023-04-25T02:42:49;98852.25;;;9.53;91.00
78354;BME280;67629;46.040;18.232;2023-04-25T02:43:20;98855.00;;;9.53;91.54
78354;BME280;67629;46.040;18.232;2023-04-25T02:45:10;98836.63;;;9.43;90.17
78354;BME280;67629;46.040;18.232;2023-04-25T02:46:55;98851.66;;;9.46;90.72
78354;BME280;67629;46.040;18.232;2023-04-25T02:47:58;98852.81;;;9.50;90.95
78354;BME280;67629;46.040;18.232;2023-04-25T02:48:28;98850.13;;;9.55;91.16
78354;BME280;67629;46.040;18.232;2023-04-25T02:49:34;98844.41;;;9.56;91.27
78354;BME280;67629;46.040;18.232;2023-04-25T02:50:05;98841.63;;;9.51;91.00
78354;BME280;67629;46.040;18.232;2023-04-25T02:50:35;98835.63;;;9.49;90.57
78354;BME280;67629;46.040;18.232;2023-04-25T02:51:38;98836.97;;;9.47;90.41
78354;BME280;67629;46.040;18.232;2023-04-25T02:52:09;98841.31;;;9.48;90.59
78354;BME280;67629;46.040;18.232;2023-04-25T02:52:40;98852.81;;;9.50;91.17
78354;BME280;67629;46.040;18.232;2023-04-25T02:53:10;98851.19;;;9.54;91.26
78354;BME280;67629;46.040;18.232;2023-04-25T02:53:41;98850.38;;;9.53;91.55
78354;BME280;67629;46.040;18.232;2023-04-25T02:54:12;98857.66;;;9.48;91.13
78354;BME280;67629;46.040;18.232;2023-04-25T02:54:43;98844.88;;;9.48;91.42
78354;BME280;67629;46.040;18.232;2023-04-25T02:55:13;98842.69;;;9.50;91.56
78354;BME280;67629;46.040;18.232;2023-04-25T02:56:15;98846.22;;;9.46;91.70
78354;BME280;67629;46.040;18.232;2023-04-25T02:56:45;98844.22;;;9.41;91.94
78354;BME280;67629;46.040;18.232;2023-04-25T02:57:16;98837.19;;;9.45;92.39
78354;BME280;67629;46.040;18.232;2023-04-25T02:57:47;98838.03;;;9.46;92.46
78354;BME280;67629;46.040;18.232;2023-04-25T02:58:18;98830.59;;;9.41;92.69
78354;BME280;67629;46.040;18.232;2023-04-25T02:58:48;98843.16;;;9.42;92.77
78354;BME280;67629;46.040;18.232;2023-04-25T02:59:53;98839.94;;;9.45;92.54
78354;BME280;67629;46.040;18.232;2023-04-25T03:00:26;98847.34;;;9.50;92.88
78354;BME280;67629;46.040;18.232;2023-04-25T03:00:58;98854.94;;;9.48;93.21
78354;BME280;67629;46.040;18.232;2023-04-25T03:01:29;98846.44;;;9.44;92.97
78354;BME280;67629;46.040;18.232;2023-04-25T03:02:32;98837.75;;;9.47;92.44
78354;BME280;67629;46.040;18.232;2023-04-25T03:03:02;98837.53;;;9.49;92.69
78354;BME280;67629;46.040;18.232;2023-04-25T03:03:33;98836.69;;;9.48;93.08
78354;BME280;67629;46.040;18.232;2023-04-25T03:04:04;98839.97;;;9.50;92.89
78354;BME280;67629;46.040;18.232;2023-04-25T03:04:35;98835.34;;;9.51;93.11
78354;BME280;67629;46.040;18.232;2023-04-25T03:05:06;98831.78;;;9.50;92.98
78354;BME280;67629;46.040;18.232;2023-04-25T03:05:37;98847.09;;;9.51;92.99
78354;BME280;67629;46.040;18.232;2023-04-25T03:06:08;98841.69;;;9.56;93.15
78354;BME280;67629;46.040;18.232;2023-04-25T03:06:38;98846.81;;;9.53;92.83
78354;BME280;67629;46.040;18.232;2023-04-25T03:07:09;98851.97;;;9.49;92.84
78354;BME280;67629;46.040;18.232;2023-04-25T03:07:40;98853.03;;;9.48;93.01
78354;BME280;67629;46.040;18.232;2023-04-25T03:08:11;98852.81;;;9.50;92.31
78354;BME280;67629;46.040;18.232;2023-04-25T03:09:19;98833.97;;;9.48;92.27
78354;BME280;67629;46.040;18.232;2023-04-25T03:10:28;98834.78;;;9.49;92.39
78354;BME280;67629;46.040;18.232;2023-04-25T03:10:58;98835.03;;;9.47;92.65
78354;BME280;67629;46.040;18.232;2023-04-25T03:11:29;98837.25;;;9.50;92.80
78354;BME280;67629;46.040;18.232;2023-04-25T03:12:00;98839.97;;;9.50;92.72
78354;BME280;67629;46.040;18.232;2023-04-25T03:12:30;98857.72;;;9.53;92.75
78354;BME280;67629;46.040;18.232;2023-04-25T03:13:02;98849.03;;;9.56;92.85
78354;BME280;67629;46.040;18.232;2023-04-25T03:13:32;98846.00;;;9.52;92.52
78354;BME280;67629;46.040;18.232;2023-04-25T03:14:36;98834.47;;;9.45;91.97
78354;BME280;67629;46.040;18.232;2023-04-25T03:15:54;98839.59;;;9.42;92.84
78354;BME280;67629;46.040;18.232;2023-04-25T03:16:57;98841.78;;;9.40;93.23
78354;BME280;67629;46.040;18.232;2023-04-25T03:17:27;98851.91;;;9.44;93.19
78354;BME280;67629;46.040;18.232;2023-04-25T03:17:58;98854.06;;;9.42;93.19
78354;BME280;67629;46.040;18.232;2023-04-25T03:18:28;98861.72;;;9.45;93.70
78354;BME280;67629;46.040;18.232;2023-04-25T03:19:35;98843.16;;;9.42;92.87
78354;BME280;67629;46.040;18.232;2023-04-25T03:20:06;98834.75;;;9.44;93.17
78354;BME280;67629;46.040;18.232;2023-04-25T03:20:38;98849.69;;;9.41;92.78
78354;BME280;67629;46.040;18.232;2023-04-25T03:21:44;98836.59;;;9.38;93.23
78354;BME280;67629;46.040;18.232;2023-04-25T03:22:14;98844.50;;;9.40;93.24
78354;BME280;67629;46.040;18.232;2023-04-25T03:23:19;98853.75;;;9.39;93.50
78354;BME280;67629;46.040;18.232;2023-04-25T03:23:50;98846.44;;;9.44;93.15
78354;BME280;67629;46.040;18.232;2023-04-25T03:24:21;98848.09;;;9.45;93.26